Terminal Aerodrome Forecast
Issued by NWS Wilmington, OH

Home | Current Version | Previous Version | Text Only | Print | Product List | Glossary On
Versions: 1 2 3 4 5 6 7 8 9 10 11 12 13 14 15 16 17 18 19 20 21 22 23 24 25
688
FTUS41 KILN 212355 AAA
TAFDAY
TAF AMD
KDAY 212355Z 2200/2224 32010KT P6SM -SHRA VCTS OVC050CB
      TEMPO 2200/2203 4SM -TSRA BR OVC025CB
     FM220500 22005KT P6SM VCSH BKN050
     FM220700 22005KT P6SM BKN080
     FM221100 22005KT P6SM BKN025
     FM221500 24008KT P6SM VCSH BKN050=

USA.gov is the U.S. government's official web portal to all federal, state and local government web resources and services.